Time;durP1;ratioP1;P1;durP2;ratioP2;P2;SDS_P1;SDS_P2;PMS_P1;PMS_P2;Temp;Humidity;BMP_temperature;BMP_pressure;BME280_temperature;BME280_humidity;BME280_pressure;Samples;Min_cycle;Max_cycle;Signal;HPM_P1;HPM_P2
2022/06/28 00:01:53;;;;;;;6.82;2.10;;;12.30;96.40;;;;;;4992291;28;20034;-48
2022/06/28 00:04:19;;;;;;;5.68;1.38;;;12.30;96.40;;;;;;4992261;28;20474;-52
2022/06/28 00:06:46;;;;;;;7.13;1.50;;;12.30;96.40;;;;;;4992157;28;20053;-51
2022/06/28 00:09:12;;;;;;;4.85;1.40;;;12.20;96.30;;;;;;4974102;28;20080;-51
2022/06/28 00:11:39;;;;;;;4.32;1.48;;;12.10;96.60;;;;;;4974609;28;20422;-49
2022/06/28 00:16:04;;;;;;;6.22;1.63;;;12.10;96.70;;;;;;4988126;28;20037;-48
2022/06/28 00:16:50;;;;;;;6.30;1.63;;;12.00;96.80;;;;;;4992073;28;20068;-51
2022/06/28 00:19:16;;;;;;;6.28;1.65;;;12.00;96.80;;;;;;4961817;28;20124;-46
2022/06/28 00:21:42;;;;;;;6.40;1.70;;;12.00;96.80;;;;;;4974610;28;20026;-49
2022/06/28 00:24:08;;;;;;;6.65;2.03;;;12.00;96.90;;;;;;4985559;28;20099;-47
2022/06/28 00:26:33;;;;;;;9.55;1.63;;;11.90;96.80;;;;;;4992043;28;20018;-44
2022/06/28 00:28:59;;;;;;;7.00;2.10;;;11.90;97.20;;;;;;4991719;28;20034;-51
2022/06/28 00:31:25;;;;;;;8.70;2.13;;;11.90;97.00;;;;;;4988278;28;20018;-51
2022/06/28 00:33:51;;;;;;;6.32;1.70;;;11.90;97.10;;;;;;4974679;28;20033;-51
2022/06/28 00:36:17;;;;;;;5.97;2.75;;;11.80;97.10;;;;;;4979274;28;20114;-52
2022/06/28 00:38:42;;;;;;;6.82;1.42;;;11.80;97.10;;;;;;4986045;28;20126;-51
2022/06/28 00:41:08;;;;;;;9.95;1.73;;;11.80;97.20;;;;;;4979651;28;20031;-51
2022/06/28 00:43:35;;;;;;;8.27;2.00;;;11.70;97.00;;;;;;4991443;28;20573;-48
2022/06/28 00:46:02;;;;;;;8.07;2.10;;;11.80;97.20;;;;;;4991674;28;20102;-54
2022/06/28 00:48:28;;;;;;;6.97;2.33;;;11.70;97.10;;;;;;4991566;28;20035;-48
2022/06/28 00:50:54;;;;;;;8.13;2.08;;;11.70;97.30;;;;;;4991662;28;20441;-46
2022/06/28 00:53:21;;;;;;;10.90;2.22;;;11.70;97.30;;;;;;4988329;28;20035;-54
2022/06/28 00:55:47;;;;;;;8.07;2.15;;;11.60;97.40;;;;;;4991696;28;20065;-46
2022/06/28 00:58:15;;;;;;;7.00;2.58;;;11.70;97.30;;;;;;4991350;28;20133;-48
2022/06/28 01:00:48;;;;;;;6.85;2.05;;;11.60;97.40;;;;;;4990380;28;20034;-50
2022/06/28 01:03:19;;;;;;;7.90;1.95;;;11.60;97.30;;;;;;4991526;28;20054;-43
2022/06/28 01:05:46;;;;;;;8.95;1.85;;;11.60;97.40;;;;;;4948052;28;20038;-44
2022/06/28 01:08:12;;;;;;;6.93;1.60;;;11.60;97.30;;;;;;4977985;28;20023;-46
2022/06/28 01:10:39;;;;;;;8.27;2.10;;;11.60;97.30;;;;;;4993840;28;20034;-54
2022/06/28 01:13:06;;;;;;;6.55;2.00;;;11.50;97.10;;;;;;4978015;28;20084;-51
2022/06/28 01:15:32;;;;;;;7.30;1.80;;;11.40;97.10;;;;;;4995219;28;20042;-48
2022/06/28 01:18:03;;;;;;;5.03;1.58;;;11.40;97.30;;;;;;4995341;28;20077;-47
2022/06/28 01:20:29;;;;;;;7.93;1.98;;;11.40;97.40;;;;;;4995314;28;20081;-46
2022/06/28 01:22:56;;;;;;;5.95;1.95;;;11.40;97.40;;;;;;4993397;28;20046;-44
2022/06/28 01:25:23;;;;;;;7.13;1.80;;;11.40;97.40;;;;;;4975671;28;20570;-47
2022/06/28 01:27:50;;;;;;;6.28;1.90;;;11.30;97.60;;;;;;4950909;28;20080;-44
2022/06/28 01:30:16;;;;;;;8.35;2.35;;;11.30;97.60;;;;;;4994980;28;20027;-42
2022/06/28 01:32:42;;;;;;;5.43;2.28;;;11.20;97.70;;;;;;4994966;28;20038;-49
2022/06/28 01:35:09;;;;;;;7.63;1.80;;;11.20;97.80;;;;;;4995045;28;20030;-46
2022/06/28 01:37:35;;;;;;;7.05;2.28;;;11.20;97.80;;;;;;4994925;28;20521;-46
2022/06/28 01:40:02;;;;;;;7.07;1.90;;;11.20;98.00;;;;;;4993505;28;20058;-46
2022/06/28 01:42:29;;;;;;;7.57;2.10;;;11.20;98.00;;;;;;4977438;28;20508;-44
2022/06/28 01:44:56;;;;;;;7.75;2.40;;;11.20;98.10;;;;;;4994706;28;20031;-47
2022/06/28 01:47:27;;;;;;;5.80;1.83;;;11.20;97.90;;;;;;4994682;28;20038;-44
2022/06/28 01:49:54;;;;;;;6.93;2.30;;;11.20;98.00;;;;;;4986531;28;20034;-49
2022/06/28 01:52:21;;;;;;;7.40;2.00;;;11.20;98.10;;;;;;4994663;28;20057;-45
2022/06/28 01:54:46;;;;;;;6.45;1.88;;;11.10;98.00;;;;;;4994785;28;20209;-46
2022/06/28 01:57:14;;;;;;;6.75;1.92;;;11.10;97.90;;;;;;4994742;28;20524;-46
2022/06/28 01:59:40;;;;;;;6.53;2.00;;;11.00;98.00;;;;;;4994463;28;20056;-49
2022/06/28 02:02:06;;;;;;;6.15;1.58;;;11.00;98.10;;;;;;4994383;28;20029;-47
2022/06/28 02:04:32;;;;;;;4.97;1.80;;;11.00;97.80;;;;;;4994548;28;20033;-49
2022/06/28 02:06:58;;;;;;;6.43;1.80;;;11.00;97.70;;;;;;4994304;28;20027;-49
2022/06/28 02:09:25;;;;;;;4.90;1.83;;;11.00;97.80;;;;;;4994337;28;20057;-50
2022/06/28 02:11:51;;;;;;;6.90;1.90;;;11.00;98.10;;;;;;4986422;28;20477;-46
2022/06/28 02:14:18;;;;;;;7.22;1.80;;;11.00;98.60;;;;;;4993016;28;20042;-46
2022/06/28 02:16:44;;;;;;;3.92;1.50;;;11.00;98.40;;;;;;4994038;28;20019;-46
2022/06/28 02:19:09;;;;;;;6.32;1.73;;;11.10;98.50;;;;;;4993795;28;20034;-53
2022/06/28 02:21:43;;;;;;;4.45;1.30;;;11.10;98.40;;;;;;4976382;28;20022;-50
2022/06/28 02:24:11;;;;;;;5.55;1.85;;;11.00;98.10;;;;;;4993976;28;20057;-42
2022/06/28 02:26:37;;;;;;;4.43;1.48;;;11.00;97.90;;;;;;4993730;28;20493;-48
2022/06/28 02:29:04;;;;;;;3.78;1.60;;;11.00;97.90;;;;;;4994006;28;20064;-42
2022/06/28 02:31:30;;;;;;;4.80;1.50;;;11.00;97.70;;;;;;4994022;28;20034;-42
2022/06/28 02:33:57;;;;;;;5.38;1.45;;;10.90;97.80;;;;;;4993854;28;20053;-44
2022/06/28 02:41:48;;;;;;;5.90;1.77;;;10.80;98.10;;;;;;4978639;28;20029;-50
2022/06/28 02:44:17;;;;;;;6.60;1.90;;;10.80;98.20;;;;;;4992595;28;20030;-42
2022/06/28 02:46:44;;;;;;;9.23;2.20;;;10.80;98.30;;;;;;4992502;28;20485;-42
2022/06/28 02:49:09;;;;;;;7.93;1.90;;;10.70;98.40;;;;;;4993625;28;20042;-42
2022/06/28 02:51:35;;;;;;;5.68;1.63;;;10.60;98.90;;;;;;4993666;28;20026;-43
2022/06/28 02:54:01;;;;;;;5.90;1.60;;;10.70;98.70;;;;;;4993644;28;20118;-50
2022/06/28 02:56:26;;;;;;;5.05;1.50;;;10.70;98.70;;;;;;4993583;28;20474;-51
2022/06/28 02:58:52;;;;;;;7.97;2.13;;;10.60;98.80;;;;;;4993316;28;20107;-49
2022/06/28 03:01:17;;;;;;;4.57;1.55;;;10.60;98.60;;;;;;4993435;28;20030;-48
2022/06/28 03:03:43;;;;;;;7.78;2.00;;;10.60;98.80;;;;;;4993475;28;20030;-54
2022/06/28 03:06:09;;;;;;;6.55;2.28;;;10.50;99.00;;;;;;4993279;28;20458;-47
2022/06/28 03:08:35;;;;;;;5.70;1.63;;;10.60;99.10;;;;;;4993310;28;20026;-43
2022/06/28 03:11:01;;;;;;;6.20;2.00;;;10.60;99.00;;;;;;4993132;28;20105;-47
2022/06/28 03:13:27;;;;;;;6.75;1.60;;;10.60;98.90;;;;;;4993395;28;20104;-47
2022/06/28 03:15:52;;;;;;;6.50;1.80;;;10.50;98.80;;;;;;4993110;28;20112;-43
2022/06/28 03:18:18;;;;;;;5.43;1.40;;;10.50;98.80;;;;;;4993103;28;20026;-43
2022/06/28 03:20:44;;;;;;;5.60;2.20;;;10.60;98.60;;;;;;4992958;28;20117;-47
2022/06/28 03:23:11;;;;;;;5.43;1.50;;;10.50;98.20;;;;;;4992718;28;20025;-46
2022/06/28 03:25:36;;;;;;;4.43;1.63;;;10.50;98.00;;;;;;4993190;28;20026;-53
2022/06/28 03:28:04;;;;;;;2.50;1.13;;;10.50;98.10;;;;;;4992803;28;20110;-42
2022/06/28 03:30:32;;;;;;;7.43;2.40;;;10.40;98.10;;;;;;4992798;28;20566;-44
2022/06/28 03:32:58;;;;;;;7.57;1.60;;;10.40;98.20;;;;;;4991892;28;20088;-43
2022/06/28 03:35:24;;;;;;;6.22;2.25;;;10.40;98.30;;;;;;4992796;28;20023;-43
2022/06/28 03:37:49;;;;;;;4.05;1.40;;;10.40;98.40;;;;;;4992878;28;20058;-52
2022/06/28 03:40:16;;;;;;;6.78;1.50;;;10.30;98.20;;;;;;4992707;28;20088;-50
2022/06/28 03:42:42;;;;;;;4.00;1.35;;;10.30;98.10;;;;;;4992763;28;20105;-42
2022/06/28 03:45:08;;;;;;;4.80;1.40;;;10.10;98.10;;;;;;4992510;28;20480;-45
2022/06/28 03:47:34;;;;;;;5.35;1.58;;;10.10;98.00;;;;;;4992590;28;20481;-47
2022/06/28 03:49:59;;;;;;;6.93;1.38;;;10.00;98.10;;;;;;4992356;28;20098;-47
2022/06/28 03:52:31;;;;;;;3.92;1.13;;;10.00;98.40;;;;;;4992497;28;20026;-52
2022/06/28 03:54:58;;;;;;;3.70;1.05;;;10.00;98.50;;;;;;4974891;28;20466;-41
2022/06/28 03:57:27;;;;;;;4.25;1.15;;;10.00;98.40;;;;;;4992368;28;20022;-46
2022/06/28 03:59:57;;;;;;;6.28;1.80;;;10.10;98.60;;;;;;4992366;28;20045;-53
2022/06/28 04:02:22;;;;;;;5.82;1.40;;;10.10;98.80;;;;;;4992147;28;20060;-43
2022/06/28 04:04:48;;;;;;;6.70;1.92;;;10.10;98.90;;;;;;4992272;28;20057;-47
2022/06/28 04:07:14;;;;;;;4.90;1.50;;;10.10;99.10;;;;;;4992390;28;20054;-54
2022/06/28 04:09:39;;;;;;;4.38;1.20;;;10.20;99.30;;;;;;4992420;28;20069;-51
2022/06/28 04:12:06;;;;;;;4.53;1.40;;;10.20;99.40;;;;;;4992127;28;20418;-48
2022/06/28 04:14:32;;;;;;;3.08;1.02;;;10.20;99.40;;;;;;4992160;28;20046;-50
2022/06/28 04:16:57;;;;;;;6.10;1.65;;;10.30;99.50;;;;;;4992138;28;20066;-51
2022/06/28 04:19:23;;;;;;;5.45;1.70;;;10.30;99.50;;;;;;4991847;28;20034;-52
2022/06/28 04:21:48;;;;;;;4.65;1.30;;;10.40;99.50;;;;;;4991924;28;20377;-42
2022/06/28 04:24:14;;;;;;;5.82;1.40;;;10.40;99.40;;;;;;4992064;28;20058;-47
2022/06/28 04:26:40;;;;;;;8.95;1.60;;;10.40;99.40;;;;;;4991892;28;20066;-58
2022/06/28 04:29:06;;;;;;;4.10;1.42;;;10.40;99.50;;;;;;4991909;28;20386;-52
2022/06/28 04:31:32;;;;;;;5.95;1.40;;;10.50;99.50;;;;;;4991790;28;20098;-54
2022/06/28 04:33:58;;;;;;;5.60;1.52;;;10.50;99.50;;;;;;4991875;28;20038;-56
2022/06/28 04:36:26;;;;;;;4.70;1.60;;;10.50;99.50;;;;;;4991726;28;20114;-55
2022/06/28 04:38:52;;;;;;;7.25;1.30;;;10.60;99.90;;;;;;4991992;28;20034;-57
2022/06/28 04:41:19;;;;;;;5.85;1.65;;;10.60;99.90;;;;;;4991854;28;20389;-54
2022/06/28 04:43:45;;;;;;;6.60;1.65;;;10.70;99.90;;;;;;4991467;28;20081;-45
2022/06/28 04:46:10;;;;;;;8.05;1.60;;;10.80;99.90;;;;;;4991664;28;20433;-59
2022/06/28 04:48:36;;;;;;;5.38;1.80;;;10.80;99.90;;;;;;4991652;28;20033;-54
2022/06/28 04:51:10;;;;;;;7.35;1.80;;;10.90;99.90;;;;;;4991746;28;20081;-51
2022/06/28 04:53:41;;;;;;;7.13;1.33;;;11.00;99.90;;;;;;4991513;28;20038;-51
2022/06/28 04:56:08;;;;;;;5.28;1.40;;;11.20;99.90;;;;;;4991541;28;20077;-52
2022/06/28 04:58:33;;;;;;;8.15;1.40;;;11.50;99.90;;;;;;4991411;28;20030;-55
2022/06/28 05:00:59;;;;;;;7.18;1.60;;;12.00;99.90;;;;;;4990201;28;20026;-50
2022/06/28 05:03:25;;;;;;;5.50;1.30;;;12.60;98.60;;;;;;4991594;28;20097;-54
2022/06/28 05:05:50;;;;;;;8.50;1.60;;;13.20;97.30;;;;;;4991423;28;20026;-51
2022/06/28 05:08:16;;;;;;;3.42;1.00;;;13.80;95.70;;;;;;4991772;28;20069;-59
2022/06/28 05:10:42;;;;;;;4.47;1.38;;;14.40;94.90;;;;;;4991520;28;20062;-52
2022/06/28 05:13:07;;;;;;;6.15;1.90;;;14.80;94.10;;;;;;4991657;28;20527;-50
2022/06/28 05:15:33;;;;;;;7.43;1.48;;;14.90;94.00;;;;;;4991279;28;20030;-52
2022/06/28 05:17:59;;;;;;;7.50;1.45;;;14.90;94.00;;;;;;4991503;28;20108;-49
2022/06/28 05:20:24;;;;;;;8.38;1.58;;;14.70;94.30;;;;;;4991483;28;20042;-54
2022/06/28 05:22:50;;;;;;;6.13;1.55;;;14.50;94.90;;;;;;4991216;28;20019;-44
2022/06/28 05:25:16;;;;;;;6.80;1.40;;;14.30;95.70;;;;;;4991246;28;20050;-49
2022/06/28 05:27:41;;;;;;;6.80;1.05;;;14.10;96.40;;;;;;4991417;28;20105;-51
2022/06/28 05:30:08;;;;;;;9.82;1.73;;;14.10;96.70;;;;;;4991134;28;20481;-49
2022/06/28 05:32:33;;;;;;;5.45;1.15;;;14.00;96.80;;;;;;4990250;28;20027;-47
2022/06/28 05:34:59;;;;;;;5.57;1.80;;;14.00;97.40;;;;;;4989833;28;20081;-45
2022/06/28 05:37:24;;;;;;;6.90;1.77;;;14.00;97.50;;;;;;4986463;28;20023;-55
2022/06/28 05:39:50;;;;;;;5.97;1.42;;;14.10;97.50;;;;;;4972246;28;20039;-52
2022/06/28 05:42:16;;;;;;;5.43;1.15;;;14.20;97.60;;;;;;4971640;28;20019;-50
2022/06/28 05:44:43;;;;;;;4.40;1.05;;;14.40;97.40;;;;;;4971634;28;20037;-51
2022/06/28 05:47:10;;;;;;;7.38;1.40;;;14.60;97.00;;;;;;4971583;28;20422;-46
2022/06/28 05:49:36;;;;;;;8.93;1.80;;;14.80;96.70;;;;;;4971844;28;20037;-44
2022/06/28 05:52:02;;;;;;;8.68;1.27;;;15.20;96.40;;;;;;4971784;28;20102;-52
2022/06/28 05:54:27;;;;;;;4.70;1.30;;;15.50;95.10;;;;;;4971822;28;20383;-48
2022/06/28 05:56:53;;;;;;;7.32;1.17;;;16.00;94.50;;;;;;4974879;28;20015;-52
2022/06/28 05:59:18;;;;;;;4.70;1.30;;;16.50;93.50;;;;;;4975055;28;20041;-51
2022/06/28 06:01:44;;;;;;;8.13;1.40;;;17.00;92.90;;;;;;4975085;28;20141;-44
2022/06/28 06:04:10;;;;;;;5.07;0.95;;;17.70;91.50;;;;;;4975039;28;20019;-54
2022/06/28 06:06:36;;;;;;;6.82;1.13;;;18.10;90.30;;;;;;4974576;28;20019;-54
2022/06/28 06:09:01;;;;;;;4.60;1.05;;;18.60;89.70;;;;;;4974940;28;20023;-48
2022/06/28 06:11:27;;;;;;;4.22;0.80;;;19.00;88.60;;;;;;4974841;28;20023;-47
2022/06/28 06:13:53;;;;;;;5.03;0.93;;;19.50;83.90;;;;;;4974818;28;20023;-51
2022/06/28 06:16:18;;;;;;;6.13;1.38;;;19.80;82.70;;;;;;4974769;28;20037;-49
2022/06/28 06:18:44;;;;;;;5.30;1.02;;;20.50;80.80;;;;;;4974860;28;20039;-42
2022/06/28 06:21:10;;;;;;;6.50;1.33;;;20.80;78.10;;;;;;4989183;28;20022;-57
2022/06/28 06:23:35;;;;;;;7.20;1.50;;;21.10;77.60;;;;;;4994219;28;20129;-51
2022/06/28 06:26:02;;;;;;;7.47;1.70;;;21.60;76.10;;;;;;4994203;28;20110;-50
2022/06/28 06:28:28;;;;;;;6.93;1.00;;;21.70;75.70;;;;;;4994034;28;20068;-53
2022/06/28 06:30:54;;;;;;;6.35;1.38;;;22.00;73.40;;;;;;4986499;28;20057;-52
2022/06/28 06:33:20;;;;;;;5.45;1.10;;;21.70;74.80;;;;;;4974981;28;20478;-47
2022/06/28 06:35:46;;;;;;;4.25;1.10;;;21.70;73.70;;;;;;4974129;28;20085;-49
2022/06/28 06:38:11;;;;;;;9.07;1.38;;;22.10;71.30;;;;;;4974335;28;20548;-50
2022/06/28 06:40:38;;;;;;;6.25;1.20;;;21.80;71.00;;;;;;4974054;28;20494;-57
2022/06/28 06:43:04;;;;;;;5.45;0.85;;;21.60;72.50;;;;;;4974204;28;20478;-52
2022/06/28 06:45:30;;;;;;;6.10;1.25;;;21.40;69.80;;;;;;4974050;28;20027;-52
2022/06/28 06:47:56;;;;;;;6.97;1.27;;;21.20;72.10;;;;;;4974440;28;20034;-55
2022/06/28 06:50:22;;;;;;;7.70;1.33;;;21.10;70.90;;;;;;4973975;28;20023;-46
2022/06/28 06:52:48;;;;;;;5.55;1.00;;;20.50;74.50;;;;;;4974325;28;20046;-54
2022/06/28 06:55:14;;;;;;;6.47;1.10;;;20.70;77.10;;;;;;4973993;28;20027;-53
2022/06/28 06:57:40;;;;;;;6.00;1.35;;;21.70;75.70;;;;;;4973757;28;20398;-42
2022/06/28 07:00:08;;;;;;;5.47;1.20;;;22.10;67.50;;;;;;4973717;28;20069;-46
2022/06/28 07:02:42;;;;;;;7.05;1.13;;;21.50;67.60;;;;;;4973656;28;20097;-45
2022/06/28 07:05:08;;;;;;;3.20;1.13;;;20.40;71.20;;;;;;4973396;28;20031;-44
2022/06/28 07:07:34;;;;;;;7.15;1.20;;;19.30;75.40;;;;;;4954234;28;20449;-43
2022/06/28 07:10:02;;;;;;;5.05;1.40;;;18.90;78.80;;;;;;4972972;28;20557;-50
2022/06/28 07:12:28;;;;;;;7.20;1.15;;;18.40;79.60;;;;;;4973151;28;20019;-44
2022/06/28 07:14:53;;;;;;;4.93;1.17;;;18.20;83.50;;;;;;4973619;28;20090;-50
2022/06/28 07:17:19;;;;;;;5.38;1.05;;;18.70;81.80;;;;;;4973529;28;20023;-47
2022/06/28 07:19:45;;;;;;;4.25;0.85;;;19.40;79.40;;;;;;4976766;28;20096;-44
2022/06/28 07:22:10;;;;;;;4.85;0.75;;;20.10;77.20;;;;;;4993209;28;20030;-49
2022/06/28 07:24:36;;;;;;;2.90;0.70;;;20.30;72.10;;;;;;4992722;28;20046;-56
2022/06/28 07:27:02;;;;;;;4.65;0.90;;;20.70;73.10;;;;;;4993058;28;20030;-45
2022/06/28 07:29:28;;;;;;;5.53;1.25;;;21.30;69.30;;;;;;4992842;28;20057;-47
2022/06/28 07:31:53;;;;;;;6.45;1.38;;;21.40;67.80;;;;;;4992539;28;20031;-48
2022/06/28 07:34:19;;;;;;;3.72;0.90;;;21.20;68.60;;;;;;4992934;28;20031;-48
2022/06/28 07:36:45;;;;;;;3.50;0.90;;;21.80;68.30;;;;;;4992728;28;20014;-49
2022/06/28 07:39:10;;;;;;;4.18;1.10;;;22.40;64.20;;;;;;4992600;28;20117;-46
2022/06/28 07:41:36;;;;;;;4.20;1.00;;;23.00;62.00;;;;;;4982072;28;20090;-47
2022/06/28 07:44:02;;;;;;;3.33;0.80;;;23.40;61.40;;;;;;4980988;28;20082;-44
2022/06/28 07:46:27;;;;;;;3.90;0.90;;;23.50;61.30;;;;;;4972147;28;20026;-52
2022/06/28 07:48:54;;;;;;;4.53;0.70;;;23.70;61.50;;;;;;4973065;28;20023;-43
2022/06/28 07:54:05;;;;;;;5.75;1.00;;;23.60;61.20;;;;;;4973532;28;20037;-47
2022/06/28 07:56:30;;;;;;;5.60;1.13;;;23.00;60.00;;;;;;4973121;28;20126;-45
2022/06/28 07:58:56;;;;;;;12.25;2.22;;;23.70;60.40;;;;;;4972718;28;20023;-50
2022/06/28 08:01:22;;;;;;;5.35;1.10;;;24.10;59.80;;;;;;4972718;28;20367;-49
2022/06/28 08:03:48;;;;;;;5.55;1.10;;;24.90;56.40;;;;;;4972457;28;20149;-51
2022/06/28 08:06:14;;;;;;;4.30;0.77;;;25.20;54.50;;;;;;4972353;28;20045;-47
2022/06/28 08:08:40;;;;;;;3.67;0.80;;;24.70;57.00;;;;;;4972425;28;20037;-52
2022/06/28 08:11:06;;;;;;;3.60;0.90;;;24.80;53.70;;;;;;4972646;28;20031;-45
2022/06/28 08:13:31;;;;;;;4.47;0.80;;;25.40;53.90;;;;;;4972362;28;20030;-49
2022/06/28 08:15:59;;;;;;;2.60;0.88;;;25.90;51.50;;;;;;4969168;28;20053;-51
2022/06/28 08:18:25;;;;;;;3.60;0.88;;;26.10;51.70;;;;;;4971512;28;20051;-42
2022/06/28 08:20:50;;;;;;;2.05;0.57;;;25.80;49.00;;;;;;4973713;28;20497;-52
2022/06/28 08:23:16;;;;;;;4.65;0.93;;;25.20;49.00;;;;;;4955097;28;20033;-47
2022/06/28 08:25:42;;;;;;;3.25;0.73;;;24.40;49.70;;;;;;4972586;28;20035;-50
2022/06/28 08:28:09;;;;;;;3.97;0.90;;;22.70;54.20;;;;;;4972488;28;20027;-45
2022/06/28 08:30:36;;;;;;;4.88;1.00;;;22.30;60.00;;;;;;4975127;28;20034;-60
2022/06/28 08:33:02;;;;;;;5.68;1.00;;;23.20;64.50;;;;;;4983464;28;20027;-44
2022/06/28 08:35:27;;;;;;;5.32;0.88;;;24.60;57.10;;;;;;4986738;28;20014;-48
2022/06/28 08:37:53;;;;;;;4.60;1.10;;;24.20;52.40;;;;;;4991760;28;20026;-56
2022/06/28 08:40:22;;;;;;;5.38;0.80;;;23.60;55.60;;;;;;4991795;28;20562;-45
2022/06/28 08:42:52;;;;;;;3.53;1.10;;;22.20;57.10;;;;;;4991709;28;20026;-45
2022/06/28 08:45:18;;;;;;;5.10;0.90;;;21.30;60.90;;;;;;4985317;28;20477;-49
2022/06/28 08:47:47;;;;;;;4.80;1.05;;;20.60;62.90;;;;;;4973903;28;20505;-43
2022/06/28 08:50:23;;;;;;;2.25;0.70;;;20.10;64.90;;;;;;4972084;28;20019;-51
2022/06/28 08:52:49;;;;;;;2.67;0.75;;;20.10;65.20;;;;;;4971726;28;20015;-41
2022/06/28 08:55:15;;;;;;;3.30;0.82;;;19.60;68.50;;;;;;4972132;28;20041;-49
2022/06/28 08:57:42;;;;;;;3.38;0.80;;;19.70;70.60;;;;;;4972103;28;20114;-47
2022/06/28 09:00:10;;;;;;;4.15;0.90;;;20.00;69.10;;;;;;4972038;28;20034;-43
2022/06/28 09:02:36;;;;;;;2.30;0.63;;;20.00;67.50;;;;;;4954689;28;20019;-51
2022/06/28 09:05:03;;;;;;;4.32;0.73;;;19.90;70.10;;;;;;4971875;28;20050;-43
2022/06/28 09:07:29;;;;;;;6.32;0.85;;;20.20;71.50;;;;;;4972129;28;20019;-52
2022/06/28 09:09:55;;;;;;;3.72;0.77;;;20.60;68.80;;;;;;4971888;28;20030;-48
2022/06/28 09:12:21;;;;;;;3.63;0.90;;;20.70;66.40;;;;;;4971933;28;20019;-50
2022/06/28 09:14:48;;;;;;;4.00;0.95;;;20.60;68.20;;;;;;4971470;28;20031;-58
2022/06/28 09:17:25;;;;;;;6.15;1.25;;;20.60;68.70;;;;;;4971706;28;20035;-54
2022/06/28 09:20:06;;;;;;;4.15;1.00;;;20.70;66.80;;;;;;4975536;28;20036;-56
2022/06/28 09:22:42;;;;;;;3.38;0.70;;;21.20;71.00;;;;;;4991371;28;20023;-53
2022/06/28 09:25:29;;;;;;;6.88;0.93;;;21.20;67.00;;;;;;4990964;28;20042;-53
2022/06/28 09:27:58;;;;;;;5.05;1.02;;;21.10;64.20;;;;;;4991124;28;20465;-47
2022/06/28 09:30:25;;;;;;;4.72;1.13;;;20.50;66.30;;;;;;4993275;28;20049;-42
2022/06/28 09:32:52;;;;;;;4.00;0.70;;;20.20;70.10;;;;;;4982138;28;20058;-53
2022/06/28 09:35:18;;;;;;;3.03;0.90;;;20.40;68.80;;;;;;4975554;28;20070;-47
2022/06/28 09:37:48;;;;;;;5.20;0.95;;;20.60;65.90;;;;;;4975518;28;20109;-49
2022/06/28 09:40:15;;;;;;;2.45;0.70;;;21.00;66.80;;;;;;4974071;28;20521;-56
2022/06/28 09:42:42;;;;;;;2.33;0.90;;;21.30;65.00;;;;;;4975400;28;20042;-54
2022/06/28 09:45:10;;;;;;;3.00;0.90;;;21.10;66.70;;;;;;4975097;28;20382;-57
2022/06/28 09:47:42;;;;;;;6.57;0.80;;;21.20;65.20;;;;;;4975197;28;20023;-50
2022/06/28 09:50:10;;;;;;;5.20;0.70;;;21.00;66.30;;;;;;4975117;28;20030;-53
2022/06/28 09:52:39;;;;;;;4.25;0.90;;;20.90;65.60;;;;;;4974808;28;20026;-51
2022/06/28 09:55:07;;;;;;;2.40;0.80;;;20.80;64.80;;;;;;4974917;28;20030;-48
2022/06/28 09:57:34;;;;;;;6.90;1.17;;;21.00;70.20;;;;;;4975140;28;20042;-42
2022/06/28 10:00:00;;;;;;;4.00;0.90;;;21.10;67.30;;;;;;4974171;28;20031;-40
2022/06/28 10:02:27;;;;;;;3.78;0.88;;;21.00;63.50;;;;;;4974460;28;20030;-41
2022/06/28 10:04:53;;;;;;;4.38;1.17;;;21.00;66.10;;;;;;4974739;28;20039;-51
2022/06/28 10:07:19;;;;;;;5.15;1.13;;;21.10;69.50;;;;;;4974284;28;20054;-50
2022/06/28 10:09:46;;;;;;;6.25;1.10;;;21.60;65.60;;;;;;4968418;28;20109;-54
2022/06/28 10:15:04;;;;;;;6.25;0.77;;;21.10;64.30;;;;;;4975007;28;20399;-54
2022/06/28 10:18:01;;;;;;;2.95;0.68;;;21.20;64.40;;;;;;4974491;28;20031;-48
2022/06/28 10:20:31;;;;;;;4.53;0.68;;;20.80;63.20;;;;;;4983471;28;20077;-46
2022/06/28 10:23:42;;;;;;;2.13;0.60;;;20.80;66.40;;;;;;4993857;28;20391;-39
2022/06/28 10:26:13;;;;;;;1.98;0.65;;;21.10;64.60;;;;;;4969838;28;20053;-44
2022/06/28 10:28:45;;;;;;;4.88;1.15;;;20.80;63.20;;;;;;4973093;28;20023;-43
2022/06/28 10:31:23;;;;;;;3.42;0.60;;;20.80;65.10;;;;;;4974034;28;20026;-41
2022/06/28 10:33:50;;;;;;;2.55;0.70;;;20.80;59.00;;;;;;4968908;28;20015;-41
2022/06/28 10:36:18;;;;;;;3.67;0.77;;;20.70;60.90;;;;;;4974422;28;20061;-42
2022/06/28 10:39:07;;;;;;;1.92;0.70;;;20.70;58.80;;;;;;4974276;28;20030;-44
2022/06/28 10:41:51;;;;;;;5.88;0.82;;;20.30;59.90;;;;;;4969071;28;20106;-45
2022/06/28 10:44:20;;;;;;;5.28;1.10;;;20.70;62.10;;;;;;4974187;28;20434;-45
2022/06/28 10:47:03;;;;;;;2.45;0.77;;;21.50;60.90;;;;;;4973991;28;20105;-45
2022/06/28 10:49:50;;;;;;;3.13;0.80;;;21.60;62.10;;;;;;4974233;28;20024;-48
2022/06/28 10:52:18;;;;;;;2.80;0.70;;;22.00;60.80;;;;;;4974226;28;20022;-46
2022/06/28 10:54:52;;;;;;;4.88;0.77;;;22.90;64.70;;;;;;4974111;28;20402;-44
2022/06/28 10:57:20;;;;;;;3.30;0.70;;;23.90;65.50;;;;;;4973901;28;20105;-53
2022/06/28 10:59:47;;;;;;;6.35;0.90;;;24.30;57.00;;;;;;4974062;28;20039;-56
2022/06/28 11:02:13;;;;;;;5.32;1.15;;;24.40;63.40;;;;;;4973850;28;20033;-42
2022/06/28 11:04:39;;;;;;;2.47;0.60;;;24.60;59.00;;;;;;4973953;28;20105;-52
2022/06/28 11:07:20;;;;;;;3.53;0.70;;;24.60;55.60;;;;;;4973849;28;20035;-50
2022/06/28 11:10:00;;;;;;;2.10;0.60;;;24.00;58.20;;;;;;4973911;28;20022;-58
2022/06/28 11:12:31;;;;;;;3.63;0.82;;;23.40;57.10;;;;;;4973826;28;20478;-52
2022/06/28 11:15:09;;;;;;;4.60;0.90;;;22.80;59.60;;;;;;4972353;28;20413;-50
2022/06/28 11:17:35;;;;;;;2.63;0.85;;;23.00;58.00;;;;;;4973565;28;20026;-53
2022/06/28 11:20:09;;;;;;;2.85;1.08;;;23.10;57.50;;;;;;4977190;28;20041;-55
2022/06/28 11:22:43;;;;;;;2.22;0.95;;;23.00;55.50;;;;;;4985686;28;20018;-46
2022/06/28 11:27:19;;;;;;;3.22;1.13;;;22.90;57.30;;;;;;4973313;28;20589;-47
2022/06/28 11:28:18;;;;;;;3.08;0.90;;;22.80;57.90;;;;;;4973277;28;20042;-45
2022/06/28 11:30:43;;;;;;;1.92;1.00;;;22.60;58.20;;;;;;4983083;28;20113;-49
2022/06/28 11:33:11;;;;;;;2.92;1.10;;;22.60;57.60;;;;;;4977359;28;20101;-44
2022/06/28 11:35:37;;;;;;;3.00;1.10;;;22.80;59.90;;;;;;4973396;28;20394;-52
2022/06/28 11:38:09;;;;;;;2.58;1.10;;;23.20;58.30;;;;;;4973035;28;20027;-46
2022/06/28 11:40:41;;;;;;;6.10;1.20;;;23.00;56.20;;;;;;4970549;28;20058;-47
2022/06/28 11:43:09;;;;;;;2.70;1.15;;;22.60;58.20;;;;;;4972159;28;20023;-49
2022/06/28 11:45:41;;;;;;;2.50;1.10;;;23.10;59.00;;;;;;4962095;28;20018;-49
2022/06/28 11:48:18;;;;;;;1.70;1.10;;;23.10;60.00;;;;;;4972788;28;20268;-49
2022/06/28 11:50:50;;;;;;;2.55;1.25;;;23.50;58.70;;;;;;4973101;28;20022;-46
2022/06/28 11:53:16;;;;;;;2.33;1.38;;;23.60;57.30;;;;;;4970858;28;20027;-47
2022/06/28 11:55:44;;;;;;;2.45;1.20;;;23.90;56.50;;;;;;4972767;28;20026;-47
2022/06/28 11:58:14;;;;;;;4.55;1.65;;;23.60;58.10;;;;;;4970988;28;20117;-51
2022/06/28 12:01:00;;;;;;;2.83;1.20;;;24.00;62.40;;;;;;4970702;28;20125;-50
2022/06/28 12:03:26;;;;;;;4.05;1.10;;;24.50;56.50;;;;;;4970730;28;20497;-50
2022/06/28 12:05:57;;;;;;;3.78;1.33;;;24.70;57.40;;;;;;4970564;28;20066;-47
2022/06/28 12:08:50;;;;;;;4.57;1.48;;;24.50;57.70;;;;;;4970643;28;20026;-43
2022/06/28 12:11:33;;;;;;;4.60;1.90;;;23.30;60.10;;;;;;4970697;28;20597;-51
2022/06/28 12:14:08;;;;;;;5.25;1.60;;;22.80;63.00;;;;;;4967989;28;20030;-45
2022/06/28 12:16:38;;;;;;;4.10;1.73;;;23.00;66.00;;;;;;4972730;28;20114;-45
2022/06/28 12:19:07;;;;;;;7.03;1.63;;;22.70;63.30;;;;;;4968257;28;20041;-48
2022/06/28 12:21:33;;;;;;;4.10;1.85;;;22.10;65.00;;;;;;4990257;28;20022;-42
2022/06/28 12:24:00;;;;;;;4.13;1.52;;;21.90;69.90;;;;;;4991734;28;20494;-57
2022/06/28 12:26:43;;;;;;;4.03;1.30;;;22.10;69.30;;;;;;4991754;28;20494;-45
2022/06/28 12:29:10;;;;;;;3.10;1.50;;;22.10;68.70;;;;;;4991729;28;20153;-52
2022/06/28 12:31:39;;;;;;;5.68;1.45;;;22.40;66.60;;;;;;4991639;28;20120;-45
2022/06/28 12:34:09;;;;;;;3.55;1.23;;;22.00;68.90;;;;;;4991727;28;20034;-48
2022/06/28 12:36:35;;;;;;;3.70;1.50;;;22.50;67.00;;;;;;4991687;28;20415;-46
2022/06/28 12:39:02;;;;;;;1.83;0.80;;;22.80;68.40;;;;;;4991627;28;20056;-43
2022/06/28 12:41:27;;;;;;;3.13;1.15;;;23.10;65.60;;;;;;4991665;28;20576;-49
2022/06/28 12:43:53;;;;;;;3.38;0.82;;;23.40;62.20;;;;;;4991751;28;20050;-50
2022/06/28 12:46:19;;;;;;;2.88;1.13;;;23.20;64.90;;;;;;4991657;28;20022;-43
2022/06/28 12:48:45;;;;;;;2.85;0.90;;;22.80;65.00;;;;;;4991397;28;20412;-50
2022/06/28 12:51:10;;;;;;;3.15;1.02;;;22.40;67.00;;;;;;4991535;28;20061;-52
2022/06/28 12:53:37;;;;;;;2.97;1.13;;;22.40;69.10;;;;;;4991502;28;20033;-48
2022/06/28 12:56:03;;;;;;;5.20;1.40;;;22.10;66.10;;;;;;4991525;28;20038;-47
2022/06/28 12:58:29;;;;;;;3.10;1.00;;;21.80;67.90;;;;;;4991352;28;20027;-45
2022/06/28 13:00:54;;;;;;;1.67;0.75;;;21.70;69.20;;;;;;4991526;28;20504;-47
2022/06/28 13:03:20;;;;;;;4.35;1.48;;;21.90;70.00;;;;;;4991669;28;20093;-51